sensor_id;sensor_type;location;lat;lon;timestamp;temperature;humidity
2625;DHT22;1322;53.256;10.386;2022-07-23T00:01:55;19.60;99.90
2625;DHT22;1322;53.256;10.386;2022-07-23T00:04:21;19.60;99.90
2625;DHT22;1322;53.256;10.386;2022-07-23T00:06:46;19.60;99.90
2625;DHT22;1322;53.256;10.386;2022-07-23T00:09:12;19.60;99.90
2625;DHT22;1322;53.256;10.386;2022-07-23T00:11:38;19.60;99.90
2625;DHT22;1322;53.256;10.386;2022-07-23T00:14:03;19.50;99.90
2625;DHT22;1322;53.256;10.386;2022-07-23T00:16:29;19.50;99.90
2625;DHT22;1322;53.256;10.386;2022-07-23T00:18:55;19.40;99.90
2625;DHT22;1322;53.256;10.386;2022-07-23T00:21:23;19.40;99.90
2625;DHT22;1322;53.256;10.386;2022-07-23T00:23:49;19.30;99.90
2625;DHT22;1322;53.256;10.386;2022-07-23T00:26:14;19.30;99.90
2625;DHT22;1322;53.256;10.386;2022-07-23T00:28:40;19.30;99.90
2625;DHT22;1322;53.256;10.386;2022-07-23T00:31:06;19.20;99.90
2625;DHT22;1322;53.256;10.386;2022-07-23T00:33:31;19.20;99.90
2625;DHT22;1322;53.256;10.386;2022-07-23T00:35:57;19.20;99.90
2625;DHT22;1322;53.256;10.386;2022-07-23T00:38:23;19.10;99.90
2625;DHT22;1322;53.256;10.386;2022-07-23T00:40:48;19.10;99.90
2625;DHT22;1322;53.256;10.386;2022-07-23T00:43:14;19.00;99.90
2625;DHT22;1322;53.256;10.386;2022-07-23T00:45:39;19.10;99.90
2625;DHT22;1322;53.256;10.386;2022-07-23T00:48:06;19.10;99.90
2625;DHT22;1322;53.256;10.386;2022-07-23T00:50:36;19.10;99.90
2625;DHT22;1322;53.256;10.386;2022-07-23T00:53:05;19.00;99.90
2625;DHT22;1322;53.256;10.386;2022-07-23T00:55:33;19.00;99.90
2625;DHT22;1322;53.256;10.386;2022-07-23T00:58:02;19.00;99.90
2625;DHT22;1322;53.256;10.386;2022-07-23T01:00:29;19.00;99.90
2625;DHT22;1322;53.256;10.386;2022-07-23T01:02:57;18.90;99.90
2625;DHT22;1322;53.256;10.386;2022-07-23T01:05:24;18.90;99.90
2625;DHT22;1322;53.256;10.386;2022-07-23T01:07:51;18.90;99.90
2625;DHT22;1322;53.256;10.386;2022-07-23T01:10:18;18.90;99.90
2625;DHT22;1322;53.256;10.386;2022-07-23T01:13:06;18.90;99.90
2625;DHT22;1322;53.256;10.386;2022-07-23T01:15:33;18.90;99.90
2625;DHT22;1322;53.256;10.386;2022-07-23T01:18:02;18.80;99.90
2625;DHT22;1322;53.256;10.386;2022-07-23T01:20:31;18.80;99.90
2625;DHT22;1322;53.256;10.386;2022-07-23T01:22:58;18.80;99.90
2625;DHT22;1322;53.256;10.386;2022-07-23T01:25:24;18.80;99.90
2625;DHT22;1322;53.256;10.386;2022-07-23T01:27:53;18.80;99.90
2625;DHT22;1322;53.256;10.386;2022-07-23T01:30:20;18.70;99.90
2625;DHT22;1322;53.256;10.386;2022-07-23T01:32:46;18.70;99.90
2625;DHT22;1322;53.256;10.386;2022-07-23T01:35:13;18.60;99.90
2625;DHT22;1322;53.256;10.386;2022-07-23T01:37:44;18.60;99.90
2625;DHT22;1322;53.256;10.386;2022-07-23T01:40:13;18.60;99.90
2625;DHT22;1322;53.256;10.386;2022-07-23T01:42:42;18.60;99.90
2625;DHT22;1322;53.256;10.386;2022-07-23T01:45:10;18.50;99.90
2625;DHT22;1322;53.256;10.386;2022-07-23T01:47:35;18.50;99.90
2625;DHT22;1322;53.256;10.386;2022-07-23T01:50:01;18.40;99.90
2625;DHT22;1322;53.256;10.386;2022-07-23T01:52:28;18.40;99.90
2625;DHT22;1322;53.256;10.386;2022-07-23T01:54:53;18.30;99.90
2625;DHT22;1322;53.256;10.386;2022-07-23T01:57:21;18.30;99.90
2625;DHT22;1322;53.256;10.386;2022-07-23T01:59:47;18.30;99.90
2625;DHT22;1322;53.256;10.386;2022-07-23T02:02:15;18.20;99.90
2625;DHT22;1322;53.256;10.386;2022-07-23T02:04:42;18.20;99.90
2625;DHT22;1322;53.256;10.386;2022-07-23T02:07:09;18.20;99.90
2625;DHT22;1322;53.256;10.386;2022-07-23T02:09:36;18.10;99.90
2625;DHT22;1322;53.256;10.386;2022-07-23T02:12:04;18.10;99.90
2625;DHT22;1322;53.256;10.386;2022-07-23T02:14:30;18.00;99.90
2625;DHT22;1322;53.256;10.386;2022-07-23T02:16:56;18.00;99.90
2625;DHT22;1322;53.256;10.386;2022-07-23T02:19:24;17.90;99.90
2625;DHT22;1322;53.256;10.386;2022-07-23T02:21:51;17.80;99.90
2625;DHT22;1322;53.256;10.386;2022-07-23T02:24:18;17.80;99.90
2625;DHT22;1322;53.256;10.386;2022-07-23T02:26:45;17.70;99.90
2625;DHT22;1322;53.256;10.386;2022-07-23T02:29:15;17.60;99.90
2625;DHT22;1322;53.256;10.386;2022-07-23T02:31:41;17.60;99.90
2625;DHT22;1322;53.256;10.386;2022-07-23T02:34:10;17.60;99.90
2625;DHT22;1322;53.256;10.386;2022-07-23T02:36:39;17.50;99.90
2625;DHT22;1322;53.256;10.386;2022-07-23T02:39:06;17.50;99.90
2625;DHT22;1322;53.256;10.386;2022-07-23T02:41:35;17.50;99.90
2625;DHT22;1322;53.256;10.386;2022-07-23T02:44:02;17.40;99.90
2625;DHT22;1322;53.256;10.386;2022-07-23T02:46:29;17.40;99.90
2625;DHT22;1322;53.256;10.386;2022-07-23T02:48:56;17.50;99.90
2625;DHT22;1322;53.256;10.386;2022-07-23T02:51:24;17.50;99.90
2625;DHT22;1322;53.256;10.386;2022-07-23T02:53:54;17.50;99.90
2625;DHT22;1322;53.256;10.386;2022-07-23T02:56:21;17.50;99.90
2625;DHT22;1322;53.256;10.386;2022-07-23T02:58:48;17.50;99.90
2625;DHT22;1322;53.256;10.386;2022-07-23T03:01:17;17.50;99.90
2625;DHT22;1322;53.256;10.386;2022-07-23T03:03:45;17.50;99.90
2625;DHT22;1322;53.256;10.386;2022-07-23T03:09:34;17.40;99.90
2625;DHT22;1322;53.256;10.386;2022-07-23T03:12:00;17.40;99.90
2625;DHT22;1322;53.256;10.386;2022-07-23T03:14:26;17.40;99.90
2625;DHT22;1322;53.256;10.386;2022-07-23T03:16:53;17.40;99.90
2625;DHT22;1322;53.256;10.386;2022-07-23T03:19:19;17.40;99.90
2625;DHT22;1322;53.256;10.386;2022-07-23T03:21:45;17.40;99.90
2625;DHT22;1322;53.256;10.386;2022-07-23T03:24:11;17.30;99.90
2625;DHT22;1322;53.256;10.386;2022-07-23T03:26:36;17.30;99.90
2625;DHT22;1322;53.256;10.386;2022-07-23T03:29:03;17.30;99.90
2625;DHT22;1322;53.256;10.386;2022-07-23T03:31:30;17.20;99.90
2625;DHT22;1322;53.256;10.386;2022-07-23T03:33:57;17.20;99.90
2625;DHT22;1322;53.256;10.386;2022-07-23T03:36:22;17.20;99.90
2625;DHT22;1322;53.256;10.386;2022-07-23T03:38:51;17.20;99.90
2625;DHT22;1322;53.256;10.386;2022-07-23T03:41:18;17.20;99.90
2625;DHT22;1322;53.256;10.386;2022-07-23T03:43:43;17.20;99.90
2625;DHT22;1322;53.256;10.386;2022-07-23T03:46:09;17.20;99.90
2625;DHT22;1322;53.256;10.386;2022-07-23T03:48:35;17.20;99.90
2625;DHT22;1322;53.256;10.386;2022-07-23T03:51:01;17.20;99.90
2625;DHT22;1322;53.256;10.386;2022-07-23T03:53:26;17.20;99.90
2625;DHT22;1322;53.256;10.386;2022-07-23T03:55:52;17.20;99.90
2625;DHT22;1322;53.256;10.386;2022-07-23T03:58:17;17.20;99.90
2625;DHT22;1322;53.256;10.386;2022-07-23T04:00:43;17.30;99.90
2625;DHT22;1322;53.256;10.386;2022-07-23T04:03:09;17.40;99.90
2625;DHT22;1322;53.256;10.386;2022-07-23T04:05:34;17.40;99.90
2625;DHT22;1322;53.256;10.386;2022-07-23T04:08:00;17.50;99.90
2625;DHT22;1322;53.256;10.386;2022-07-23T04:10:25;17.60;99.90
2625;DHT22;1322;53.256;10.386;2022-07-23T04:12:51;17.80;99.90
2625;DHT22;1322;53.256;10.386;2022-07-23T04:15:17;17.90;99.90
2625;DHT22;1322;53.256;10.386;2022-07-23T04:17:42;18.00;99.90
2625;DHT22;1322;53.256;10.386;2022-07-23T04:20:10;18.20;99.90
2625;DHT22;1322;53.256;10.386;2022-07-23T04:22:39;18.20;99.90
2625;DHT22;1322;53.256;10.386;2022-07-23T04:25:05;18.20;99.90
2625;DHT22;1322;53.256;10.386;2022-07-23T04:27:31;18.30;99.90
2625;DHT22;1322;53.256;10.386;2022-07-23T04:29:58;18.30;99.90
2625;DHT22;1322;53.256;10.386;2022-07-23T04:32:24;18.30;99.90
2625;DHT22;1322;53.256;10.386;2022-07-23T04:34:50;18.30;99.90
2625;DHT22;1322;53.256;10.386;2022-07-23T04:37:15;18.30;99.90
2625;DHT22;1322;53.256;10.386;2022-07-23T04:39:41;18.30;99.90
2625;DHT22;1322;53.256;10.386;2022-07-23T04:42:07;18.30;99.90
2625;DHT22;1322;53.256;10.386;2022-07-23T04:44:32;18.30;99.90
2625;DHT22;1322;53.256;10.386;2022-07-23T04:46:58;18.20;99.90
2625;DHT22;1322;53.256;10.386;2022-07-23T04:49:23;18.20;99.90
2625;DHT22;1322;53.256;10.386;2022-07-23T04:51:49;18.20;99.90
2625;DHT22;1322;53.256;10.386;2022-07-23T04:54:14;18.10;99.90
2625;DHT22;1322;53.256;10.386;2022-07-23T04:56:40;18.00;99.90
2625;DHT22;1322;53.256;10.386;2022-07-23T04:59:06;18.00;99.90
2625;DHT22;1322;53.256;10.386;2022-07-23T05:01:31;18.00;99.90
2625;DHT22;1322;53.256;10.386;2022-07-23T05:03:57;17.90;99.90
2625;DHT22;1322;53.256;10.386;2022-07-23T05:06:22;17.90;99.90
2625;DHT22;1322;53.256;10.386;2022-07-23T05:08:48;17.90;99.90
2625;DHT22;1322;53.256;10.386;2022-07-23T05:11:17;17.90;99.90
2625;DHT22;1322;53.256;10.386;2022-07-23T05:13:43;17.90;99.90
2625;DHT22;1322;53.256;10.386;2022-07-23T05:16:08;17.90;99.90
2625;DHT22;1322;53.256;10.386;2022-07-23T05:18:34;17.90;99.90
2625;DHT22;1322;53.256;10.386;2022-07-23T05:20:59;17.90;99.90
2625;DHT22;1322;53.256;10.386;2022-07-23T05:23:25;17.90;99.90
2625;DHT22;1322;53.256;10.386;2022-07-23T05:25:51;17.90;99.90
2625;DHT22;1322;53.256;10.386;2022-07-23T05:28:16;18.00;99.90
2625;DHT22;1322;53.256;10.386;2022-07-23T05:30:42;18.00;99.90
2625;DHT22;1322;53.256;10.386;2022-07-23T05:33:07;18.00;99.90
2625;DHT22;1322;53.256;10.386;2022-07-23T05:35:33;18.00;99.90
2625;DHT22;1322;53.256;10.386;2022-07-23T05:37:59;18.10;99.90
2625;DHT22;1322;53.256;10.386;2022-07-23T05:40:24;18.10;99.90
2625;DHT22;1322;53.256;10.386;2022-07-23T05:42:50;18.10;99.90
2625;DHT22;1322;53.256;10.386;2022-07-23T05:45:18;18.20;99.90
2625;DHT22;1322;53.256;10.386;2022-07-23T05:47:46;18.30;99.90
2625;DHT22;1322;53.256;10.386;2022-07-23T05:50:13;18.40;99.90
2625;DHT22;1322;53.256;10.386;2022-07-23T05:52:39;18.50;99.90
2625;DHT22;1322;53.256;10.386;2022-07-23T05:55:06;18.60;99.90
2625;DHT22;1322;53.256;10.386;2022-07-23T05:57:32;18.70;99.90
2625;DHT22;1322;53.256;10.386;2022-07-23T05:59:58;18.80;99.90
2625;DHT22;1322;53.256;10.386;2022-07-23T06:02:23;18.80;99.90
2625;DHT22;1322;53.256;10.386;2022-07-23T06:04:49;18.80;99.90
2625;DHT22;1322;53.256;10.386;2022-07-23T06:07:15;19.00;99.90
2625;DHT22;1322;53.256;10.386;2022-07-23T06:09:40;19.00;99.90
2625;DHT22;1322;53.256;10.386;2022-07-23T06:12:07;19.20;99.90
2625;DHT22;1322;53.256;10.386;2022-07-23T06:14:32;19.50;99.90
2625;DHT22;1322;53.256;10.386;2022-07-23T06:16:58;20.10;99.90
2625;DHT22;1322;53.256;10.386;2022-07-23T06:19:25;20.80;99.90
2625;DHT22;1322;53.256;10.386;2022-07-23T06:21:50;21.30;99.90
2625;DHT22;1322;53.256;10.386;2022-07-23T06:24:16;21.60;99.90
2625;DHT22;1322;53.256;10.386;2022-07-23T06:26:45;22.00;99.90
2625;DHT22;1322;53.256;10.386;2022-07-23T06:29:10;22.20;99.90
2625;DHT22;1322;53.256;10.386;2022-07-23T06:31:36;22.30;99.90
2625;DHT22;1322;53.256;10.386;2022-07-23T06:34:02;22.50;99.90
2625;DHT22;1322;53.256;10.386;2022-07-23T06:36:28;22.50;99.90
2625;DHT22;1322;53.256;10.386;2022-07-23T06:38:54;22.50;99.90
2625;DHT22;1322;53.256;10.386;2022-07-23T06:41:19;22.30;99.90
2625;DHT22;1322;53.256;10.386;2022-07-23T06:43:45;22.10;99.90
2625;DHT22;1322;53.256;10.386;2022-07-23T06:46:10;22.10;99.90
2625;DHT22;1322;53.256;10.386;2022-07-23T06:48:36;22.20;99.90
2625;DHT22;1322;53.256;10.386;2022-07-23T06:51:02;22.30;99.90
2625;DHT22;1322;53.256;10.386;2022-07-23T06:53:28;22.10;99.90
2625;DHT22;1322;53.256;10.386;2022-07-23T06:55:54;22.10;99.90
2625;DHT22;1322;53.256;10.386;2022-07-23T06:58:20;22.30;99.90
2625;DHT22;1322;53.256;10.386;2022-07-23T07:00:46;22.50;99.90
2625;DHT22;1322;53.256;10.386;2022-07-23T07:03:12;22.70;99.90
2625;DHT22;1322;53.256;10.386;2022-07-23T07:05:37;23.10;99.90
2625;DHT22;1322;53.256;10.386;2022-07-23T07:08:07;23.40;99.90
2625;DHT22;1322;53.256;10.386;2022-07-23T07:10:38;23.60;99.90
2625;DHT22;1322;53.256;10.386;2022-07-23T07:13:03;23.50;99.90
2625;DHT22;1322;53.256;10.386;2022-07-23T07:15:29;23.10;99.90
2625;DHT22;1322;53.256;10.386;2022-07-23T07:17:54;22.90;99.90
2625;DHT22;1322;53.256;10.386;2022-07-23T07:20:20;22.50;99.90
2625;DHT22;1322;53.256;10.386;2022-07-23T07:22:45;22.20;99.90
2625;DHT22;1322;53.256;10.386;2022-07-23T07:25:11;22.40;99.90
2625;DHT22;1322;53.256;10.386;2022-07-23T07:27:37;22.70;99.90
2625;DHT22;1322;53.256;10.386;2022-07-23T07:30:04;23.30;99.90
2625;DHT22;1322;53.256;10.386;2022-07-23T07:32:30;23.50;99.90
2625;DHT22;1322;53.256;10.386;2022-07-23T07:34:58;23.30;99.90
2625;DHT22;1322;53.256;10.386;2022-07-23T07:37:23;22.50;99.90
2625;DHT22;1322;53.256;10.386;2022-07-23T07:39:49;22.10;99.90
2625;DHT22;1322;53.256;10.386;2022-07-23T07:42:15;22.00;99.90
2625;DHT22;1322;53.256;10.386;2022-07-23T07:44:40;21.90;99.90
2625;DHT22;1322;53.256;10.386;2022-07-23T07:47:06;21.90;99.90
2625;DHT22;1322;53.256;10.386;2022-07-23T07:49:33;22.00;99.90
2625;DHT22;1322;53.256;10.386;2022-07-23T07:51:58;22.20;99.90
2625;DHT22;1322;53.256;10.386;2022-07-23T07:54:24;22.20;99.90
2625;DHT22;1322;53.256;10.386;2022-07-23T07:56:50;21.90;99.90
2625;DHT22;1322;53.256;10.386;2022-07-23T07:59:16;21.50;99.90
2625;DHT22;1322;53.256;10.386;2022-07-23T08:01:41;21.20;99.90
2625;DHT22;1322;53.256;10.386;2022-07-23T08:04:07;21.10;99.90
2625;DHT22;1322;53.256;10.386;2022-07-23T08:06:33;21.20;99.90
2625;DHT22;1322;53.256;10.386;2022-07-23T08:08:58;21.40;99.90
2625;DHT22;1322;53.256;10.386;2022-07-23T08:11:24;21.50;99.90
2625;DHT22;1322;53.256;10.386;2022-07-23T08:13:50;21.70;99.90
2625;DHT22;1322;53.256;10.386;2022-07-23T08:16:15;21.70;99.90
2625;DHT22;1322;53.256;10.386;2022-07-23T08:18:45;21.80;99.90
2625;DHT22;1322;53.256;10.386;2022-07-23T08:21:11;22.00;99.90
2625;DHT22;1322;53.256;10.386;2022-07-23T08:23:36;22.40;99.90
2625;DHT22;1322;53.256;10.386;2022-07-23T08:26:02;23.00;99.90
2625;DHT22;1322;53.256;10.386;2022-07-23T08:28:27;23.40;99.90
2625;DHT22;1322;53.256;10.386;2022-07-23T08:30:53;23.40;99.90
2625;DHT22;1322;53.256;10.386;2022-07-23T08:33:19;23.20;99.90
2625;DHT22;1322;53.256;10.386;2022-07-23T08:35:49;23.10;99.90
2625;DHT22;1322;53.256;10.386;2022-07-23T08:38:17;23.20;99.90
2625;DHT22;1322;53.256;10.386;2022-07-23T08:40:45;23.10;99.90
2625;DHT22;1322;53.256;10.386;2022-07-23T08:43:20;23.00;99.90
2625;DHT22;1322;53.256;10.386;2022-07-23T08:45:48;22.90;99.90
2625;DHT22;1322;53.256;10.386;2022-07-23T08:48:21;22.80;99.90
2625;DHT22;1322;53.256;10.386;2022-07-23T08:50:50;22.70;99.90
2625;DHT22;1322;53.256;10.386;2022-07-23T08:53:17;22.50;99.90
2625;DHT22;1322;53.256;10.386;2022-07-23T08:55:48;22.60;99.90
2625;DHT22;1322;53.256;10.386;2022-07-23T08:58:14;22.60;99.90
2625;DHT22;1322;53.256;10.386;2022-07-23T09:00:40;22.50;99.90
2625;DHT22;1322;53.256;10.386;2022-07-23T09:03:06;22.50;99.90
2625;DHT22;1322;53.256;10.386;2022-07-23T09:05:32;22.60;99.90
2625;DHT22;1322;53.256;10.386;2022-07-23T10:06:13;22.30;99.90
2625;DHT22;1322;53.256;10.386;2022-07-23T10:08:40;22.40;99.90
2625;DHT22;1322;53.256;10.386;2022-07-23T10:11:08;22.30;99.90
2625;DHT22;1322;53.256;10.386;2022-07-23T10:13:35;22.30;99.90
2625;DHT22;1322;53.256;10.386;2022-07-23T10:16:15;22.40;99.90
2625;DHT22;1322;53.256;10.386;2022-07-23T10:18:41;22.60;99.90
2625;DHT22;1322;53.256;10.386;2022-07-23T10:21:07;22.80;99.90
2625;DHT22;1322;53.256;10.386;2022-07-23T10:23:39;22.80;99.90
2625;DHT22;1322;53.256;10.386;2022-07-23T10:26:32;22.60;99.90
2625;DHT22;1322;53.256;10.386;2022-07-23T10:29:23;22.50;99.90
2625;DHT22;1322;53.256;10.386;2022-07-23T10:37:32;22.80;99.90
2625;DHT22;1322;53.256;10.386;2022-07-23T10:40:20;23.00;99.90
2625;DHT22;1322;53.256;10.386;2022-07-23T10:42:50;23.30;99.90
2625;DHT22;1322;53.256;10.386;2022-07-23T10:47:51;23.40;99.90
2625;DHT22;1322;53.256;10.386;2022-07-23T10:50:19;23.60;99.90
2625;DHT22;1322;53.256;10.386;2022-07-23T10:53:12;23.60;99.90
2625;DHT22;1322;53.256;10.386;2022-07-23T10:55:41;23.70;99.90
2625;DHT22;1322;53.256;10.386;2022-07-23T10:58:07;23.70;99.90
2625;DHT22;1322;53.256;10.386;2022-07-23T11:00:35;23.70;99.90
2625;DHT22;1322;53.256;10.386;2022-07-23T11:03:04;23.80;99.90
2625;DHT22;1322;53.256;10.386;2022-07-23T11:05:43;23.80;99.90
2625;DHT22;1322;53.256;10.386;2022-07-23T11:08:10;23.40;99.90
2625;DHT22;1322;53.256;10.386;2022-07-23T11:10:41;23.00;99.90
2625;DHT22;1322;53.256;10.386;2022-07-23T11:13:26;22.60;99.90
2625;DHT22;1322;53.256;10.386;2022-07-23T11:32:17;22.50;99.90
2625;DHT22;1322;53.256;10.386;2022-07-23T11:34:47;22.60;99.90
2625;DHT22;1322;53.256;10.386;2022-07-23T11:37:36;22.70;99.90
2625;DHT22;1322;53.256;10.386;2022-07-23T11:40:10;22.70;99.90
2625;DHT22;1322;53.256;10.386;2022-07-23T11:42:51;22.80;99.90
2625;DHT22;1322;53.256;10.386;2022-07-23T11:45:17;22.90;99.90
2625;DHT22;1322;53.256;10.386;2022-07-23T11:47:43;23.10;99.90
2625;DHT22;1322;53.256;10.386;2022-07-23T11:50:09;23.10;99.90
2625;DHT22;1322;53.256;10.386;2022-07-23T11:52:35;22.90;99.90
2625;DHT22;1322;53.256;10.386;2022-07-23T11:55:04;22.70;99.90
2625;DHT22;1322;53.256;10.386;2022-07-23T11:57:32;22.80;99.90
2625;DHT22;1322;53.256;10.386;2022-07-23T12:02:33;22.80;99.90
2625;DHT22;1322;53.256;10.386;2022-07-23T12:04:59;22.80;99.90
2625;DHT22;1322;53.256;10.386;2022-07-23T12:07:37;22.80;99.90
2625;DHT22;1322;53.256;10.386;2022-07-23T12:10:18;23.00;99.90
2625;DHT22;1322;53.256;10.386;2022-07-23T12:12:49;23.20;99.90
2625;DHT22;1322;53.256;10.386;2022-07-23T12:15:17;23.40;99.90
2625;DHT22;1322;53.256;10.386;2022-07-23T12:17:45;23.60;99.90
2625;DHT22;1322;53.256;10.386;2022-07-23T12:20:18;23.80;99.90
2625;DHT22;1322;53.256;10.386;2022-07-23T12:22:47;23.90;99.90
2625;DHT22;1322;53.256;10.386;2022-07-23T12:25:18;24.00;99.90
2625;DHT22;1322;53.256;10.386;2022-07-23T12:27:45;24.20;99.90
2625;DHT22;1322;53.256;10.386;2022-07-23T12:30:28;24.10;99.90
2625;DHT22;1322;53.256;10.386;2022-07-23T12:32:57;24.20;99.90
2625;DHT22;1322;53.256;10.386;2022-07-23T12:35:29;24.20;99.90
2625;DHT22;1322;53.256;10.386;2022-07-23T12:38:03;24.20;99.90
2625;DHT22;1322;53.256;10.386;2022-07-23T12:40:34;24.20;99.90
2625;DHT22;1322;53.256;10.386;2022-07-23T12:43:06;24.10;99.90
2625;DHT22;1322;53.256;10.386;2022-07-23T12:45:47;24.10;99.90
2625;DHT22;1322;53.256;10.386;2022-07-23T12:51:14;23.90;99.90
2625;DHT22;1322;53.256;10.386;2022-07-23T12:53:42;24.00;99.90
2625;DHT22;1322;53.256;10.386;2022-07-23T12:56:11;23.90;99.90
2625;DHT22;1322;53.256;10.386;2022-07-23T12:59:04;23.70;99.90
2625;DHT22;1322;53.256;10.386;2022-07-23T13:01:35;23.70;99.90
2625;DHT22;1322;53.256;10.386;2022-07-23T13:04:09;23.40;99.90
2625;DHT22;1322;53.256;10.386;2022-07-23T13:06:43;23.40;99.90
2625;DHT22;1322;53.256;10.386;2022-07-23T13:09:11;23.70;99.90
2625;DHT22;1322;53.256;10.386;2022-07-23T13:11:38;23.80;99.90
2625;DHT22;1322;53.256;10.386;2022-07-23T13:14:04;23.90;99.90
2625;DHT22;1322;53.256;10.386;2022-07-23T13:16:31;23.90;99.90
2625;DHT22;1322;53.256;10.386;2022-07-23T13:18:59;23.80;99.90
2625;DHT22;1322;53.256;10.386;2022-07-23T13:21:26;23.80;99.90
2625;DHT22;1322;53.256;10.386;2022-07-23T13:23:51;23.70;99.90
2625;DHT22;1322;53.256;10.386;2022-07-23T13:26:17;23.50;99.90
2625;DHT22;1322;53.256;10.386;2022-07-23T13:28:43;23.40;99.90
2625;DHT22;1322;53.256;10.386;2022-07-23T13:31:09;23.60;99.90
2625;DHT22;1322;53.256;10.386;2022-07-23T13:33:35;23.70;99.90
2625;DHT22;1322;53.256;10.386;2022-07-23T13:36:00;23.90;99.90
2625;DHT22;1322;53.256;10.386;2022-07-23T13:38:27;23.60;99.90
2625;DHT22;1322;53.256;10.386;2022-07-23T13:40:53;23.30;99.90
2625;DHT22;1322;53.256;10.386;2022-07-23T13:43:21;23.10;99.90
2625;DHT22;1322;53.256;10.386;2022-07-23T13:45:48;23.20;99.90
2625;DHT22;1322;53.256;10.386;2022-07-23T13:48:14;23.20;99.90
2625;DHT22;1322;53.256;10.386;2022-07-23T13:50:40;23.10;99.90
2625;DHT22;1322;53.256;10.386;2022-07-23T13:53:10;23.20;99.90
2625;DHT22;1322;53.256;10.386;2022-07-23T13:55:37;23.30;99.90
2625;DHT22;1322;53.256;10.386;2022-07-23T13:58:04;23.30;99.90
2625;DHT22;1322;53.256;10.386;2022-07-23T14:00:31;23.30;99.90
2625;DHT22;1322;53.256;10.386;2022-07-23T14:02:57;23.50;99.90
2625;DHT22;1322;53.256;10.386;2022-07-23T14:05:23;23.60;99.90
2625;DHT22;1322;53.256;10.386;2022-07-23T14:07:49;23.80;99.90
2625;DHT22;1322;53.256;10.386;2022-07-23T14:10:18;23.60;99.90
2625;DHT22;1322;53.256;10.386;2022-07-23T14:12:44;23.50;99.90
2625;DHT22;1322;53.256;10.386;2022-07-23T14:15:10;23.50;99.90
2625;DHT22;1322;53.256;10.386;2022-07-23T14:17:38;23.50;99.90
2625;DHT22;1322;53.256;10.386;2022-07-23T14:20:05;23.60;99.90
2625;DHT22;1322;53.256;10.386;2022-07-23T14:22:31;23.80;99.90
2625;DHT22;1322;53.256;10.386;2022-07-23T14:24:57;23.60;99.90
2625;DHT22;1322;53.256;10.386;2022-07-23T14:27:24;23.40;99.90
2625;DHT22;1322;53.256;10.386;2022-07-23T14:29:50;23.20;99.90
2625;DHT22;1322;53.256;10.386;2022-07-23T14:32:15;22.90;99.90
2625;DHT22;1322;53.256;10.386;2022-07-23T14:34:41;22.70;99.90
2625;DHT22;1322;53.256;10.386;2022-07-23T14:37:07;22.60;99.90
2625;DHT22;1322;53.256;10.386;2022-07-23T14:39:33;22.50;99.90
2625;DHT22;1322;53.256;10.386;2022-07-23T14:41:58;22.50;99.90
2625;DHT22;1322;53.256;10.386;2022-07-23T14:44:24;22.50;99.90
2625;DHT22;1322;53.256;10.386;2022-07-23T14:46:50;22.50;99.90
2625;DHT22;1322;53.256;10.386;2022-07-23T14:49:15;22.40;99.90
2625;DHT22;1322;53.256;10.386;2022-07-23T14:51:41;22.50;99.90
2625;DHT22;1322;53.256;10.386;2022-07-23T14:54:09;22.60;99.90
2625;DHT22;1322;53.256;10.386;2022-07-23T14:56:34;22.60;99.90
2625;DHT22;1322;53.256;10.386;2022-07-23T14:59:02;22.60;99.90
2625;DHT22;1322;53.256;10.386;2022-07-23T15:01:28;22.50;99.90
2625;DHT22;1322;53.256;10.386;2022-07-23T15:03:54;22.50;99.90
2625;DHT22;1322;53.256;10.386;2022-07-23T15:06:20;22.60;99.90
2625;DHT22;1322;53.256;10.386;2022-07-23T15:08:46;22.70;99.90
2625;DHT22;1322;53.256;10.386;2022-07-23T15:11:12;22.70;99.90
2625;DHT22;1322;53.256;10.386;2022-07-23T15:13:39;22.70;99.90
2625;DHT22;1322;53.256;10.386;2022-07-23T15:16:05;22.60;99.90
2625;DHT22;1322;53.256;10.386;2022-07-23T15:18:34;22.50;99.90
2625;DHT22;1322;53.256;10.386;2022-07-23T15:21:00;22.40;99.90
2625;DHT22;1322;53.256;10.386;2022-07-23T15:23:29;22.50;99.90
2625;DHT22;1322;53.256;10.386;2022-07-23T15:25:55;22.50;99.90
2625;DHT22;1322;53.256;10.386;2022-07-23T15:28:21;22.50;99.90
2625;DHT22;1322;53.256;10.386;2022-07-23T15:30:48;22.60;99.90
2625;DHT22;1322;53.256;10.386;2022-07-23T15:33:14;22.70;99.90
2625;DHT22;1322;53.256;10.386;2022-07-23T15:35:40;22.80;99.90
2625;DHT22;1322;53.256;10.386;2022-07-23T15:38:06;22.80;99.90
2625;DHT22;1322;53.256;10.386;2022-07-23T15:40:31;22.70;99.90
2625;DHT22;1322;53.256;10.386;2022-07-23T15:42:57;22.40;99.90
2625;DHT22;1322;53.256;10.386;2022-07-23T15:45:23;22.20;99.90
2625;DHT22;1322;53.256;10.386;2022-07-23T15:47:49;22.20;99.90
2625;DHT22;1322;53.256;10.386;2022-07-23T15:50:15;22.20;99.90
2625;DHT22;1322;53.256;10.386;2022-07-23T15:52:44;22.00;99.90
2625;DHT22;1322;53.256;10.386;2022-07-23T15:55:09;22.00;99.90
2625;DHT22;1322;53.256;10.386;2022-07-23T15:57:35;22.10;99.90
2625;DHT22;1322;53.256;10.386;2022-07-23T16:00:01;22.10;99.90
2625;DHT22;1322;53.256;10.386;2022-07-23T16:02:27;22.00;99.90
2625;DHT22;1322;53.256;10.386;2022-07-23T16:04:52;22.00;99.90
2625;DHT22;1322;53.256;10.386;2022-07-23T16:07:19;22.00;99.90
2625;DHT22;1322;53.256;10.386;2022-07-23T16:09:48;22.10;99.90
2625;DHT22;1322;53.256;10.386;2022-07-23T16:12:13;22.10;99.90
2625;DHT22;1322;53.256;10.386;2022-07-23T16:14:39;22.10;99.90
2625;DHT22;1322;53.256;10.386;2022-07-23T16:17:05;22.10;99.90
2625;DHT22;1322;53.256;10.386;2022-07-23T16:19:31;21.90;99.90
2625;DHT22;1322;53.256;10.386;2022-07-23T16:21:56;21.80;99.90
2625;DHT22;1322;53.256;10.386;2022-07-23T16:24:22;21.70;99.90
2625;DHT22;1322;53.256;10.386;2022-07-23T16:26:48;21.80;99.90
2625;DHT22;1322;53.256;10.386;2022-07-23T16:29:14;21.80;99.90
2625;DHT22;1322;53.256;10.386;2022-07-23T16:31:39;21.90;99.90
2625;DHT22;1322;53.256;10.386;2022-07-23T16:34:05;21.80;99.90
2625;DHT22;1322;53.256;10.386;2022-07-23T16:36:31;21.70;99.90
2625;DHT22;1322;53.256;10.386;2022-07-23T16:38:59;21.60;99.90
2625;DHT22;1322;53.256;10.386;2022-07-23T16:41:25;21.80;99.90
2625;DHT22;1322;53.256;10.386;2022-07-23T16:43:51;21.80;99.90
2625;DHT22;1322;53.256;10.386;2022-07-23T16:46:17;21.80;99.90
2625;DHT22;1322;53.256;10.386;2022-07-23T16:48:42;21.70;99.90
2625;DHT22;1322;53.256;10.386;2022-07-23T16:51:08;21.70;99.90
2625;DHT22;1322;53.256;10.386;2022-07-23T16:53:35;21.50;99.90
2625;DHT22;1322;53.256;10.386;2022-07-23T16:56:01;21.50;99.90
2625;DHT22;1322;53.256;10.386;2022-07-23T16:58:27;21.50;99.90
2625;DHT22;1322;53.256;10.386;2022-07-23T17:00:52;21.50;99.90
2625;DHT22;1322;53.256;10.386;2022-07-23T17:03:18;21.50;99.90
2625;DHT22;1322;53.256;10.386;2022-07-23T17:05:44;21.50;99.90
2625;DHT22;1322;53.256;10.386;2022-07-23T17:08:12;21.50;99.90
2625;DHT22;1322;53.256;10.386;2022-07-23T17:10:38;21.40;99.90
2625;DHT22;1322;53.256;10.386;2022-07-23T17:13:03;21.40;99.90
2625;DHT22;1322;53.256;10.386;2022-07-23T17:15:29;21.40;99.90
2625;DHT22;1322;53.256;10.386;2022-07-23T17:17:55;21.30;99.90